Time;durP1;ratioP1;P1;durP2;ratioP2;P2;SDS_P1;SDS_P2;PMS_P1;PMS_P2;Temp;Humidity;BMP_temperature;BMP_pressure;BME280_temperature;BME280_humidity;BME280_pressure;Samples;Min_cycle;Max_cycle;Signal;HPM_P1;HPM_P2
2021/10/03 00:00:17;;;;;;;19.83;14.18;;;;;;;14.38;88.88;100129.31;4972994;28;20085;-69
2021/10/03 00:02:48;;;;;;;20.73;13.50;;;;;;;14.36;88.87;100128.56;4969323;28;20083;-67
2021/10/03 00:05:16;;;;;;;17.58;14.32;;;;;;;14.37;88.29;100123.16;4974560;28;20078;-68
2021/10/03 00:07:49;;;;;;;21.63;14.38;;;;;;;14.36;88.42;100120.63;4975506;28;20078;-67
2021/10/03 00:10:21;;;;;;;16.75;14.50;;;;;;;14.36;88.49;100129.44;4977911;28;20432;-69
2021/10/03 00:12:49;;;;;;;17.88;14.80;;;;;;;14.40;87.69;100130.84;4976824;28;20145;-67
2021/10/03 00:15:17;;;;;;;19.73;14.48;;;;;;;14.34;87.99;100128.72;4972375;28;20074;-67
2021/10/03 00:17:45;;;;;;;18.83;14.13;;;;;;;14.38;87.44;100127.50;4980807;28;20089;-67
2021/10/03 00:20:13;;;;;;;18.73;14.77;;;;;;;14.35;87.66;100122.44;4974036;28;20058;-67
2021/10/03 00:22:40;;;;;;;17.70;14.27;;;;;;;14.38;87.14;100121.34;4982204;28;20046;-67
2021/10/03 00:25:09;;;;;;;18.20;14.63;;;;;;;14.47;86.28;100117.09;4968988;28;20133;-69
2021/10/03 00:27:36;;;;;;;20.40;14.85;;;;;;;14.49;85.32;100116.03;4980820;28;20050;-68
2021/10/03 00:30:04;;;;;;;21.85;15.25;;;;;;;14.49;85.10;100116.03;4971694;28;20096;-70
2021/10/03 00:32:31;;;;;;;19.13;14.02;;;;;;;14.50;84.92;100112.44;4977494;28;20479;-68
2021/10/03 00:34:58;;;;;;;20.92;14.27;;;;;;;14.51;84.84;100113.28;4973848;28;20229;-68
2021/10/03 00:37:26;;;;;;;22.45;15.38;;;;;;;14.48;84.23;100109.06;4974472;28;20573;-68
2021/10/03 00:39:53;;;;;;;21.20;14.60;;;;;;;14.47;84.04;100102.06;4969233;28;20596;-67
2021/10/03 00:42:20;;;;;;;22.58;15.48;;;;;;;14.45;83.61;100093.38;4972513;28;20078;-68
2021/10/03 00:44:47;;;;;;;22.38;13.98;;;;;;;14.50;83.31;100095.66;4973526;28;20138;-67
2021/10/03 00:47:15;;;;;;;17.77;14.73;;;;;;;14.43;83.23;100097.97;4972870;28;20085;-67
2021/10/03 00:49:43;;;;;;;19.05;13.85;;;;;;;14.42;82.92;100094.50;4973743;28;20171;-67
2021/10/03 00:52:11;;;;;;;18.67;13.70;;;;;;;14.43;82.29;100095.31;4974060;28;20058;-69
2021/10/03 00:54:38;;;;;;;17.10;14.20;;;;;;;14.44;82.33;100095.19;4969467;28;20054;-69
2021/10/03 00:57:06;;;;;;;17.42;13.75;;;;;;;14.49;81.33;100094.00;4973970;28;20117;-67
2021/10/03 00:59:34;;;;;;;17.73;13.05;;;;;;;14.39;81.74;100104.50;4967287;28;20838;-68
2021/10/03 01:02:02;;;;;;;18.83;14.95;;;;;;;14.32;81.48;100100.66;4956807;28;20068;-68
2021/10/03 01:04:33;;;;;;;16.40;13.60;;;;;;;14.44;80.66;100100.47;4968048;28;20072;-69
2021/10/03 01:07:14;;;;;;;19.15;13.73;;;;;;;14.47;80.03;100091.47;4911523;29;20123;-70
2021/10/03 01:09:41;;;;;;;16.27;13.70;;;;;;;14.45;80.03;100093.38;4894787;29;20082;-69
2021/10/03 01:12:09;;;;;;;18.02;13.50;;;;;;;14.35;80.01;100087.19;4911655;29;20088;-69
2021/10/03 01:14:36;;;;;;;18.60;13.38;;;;;;;14.32;79.89;100090.06;4909980;29;20056;-69
2021/10/03 01:17:04;;;;;;;22.15;12.88;;;;;;;14.28;79.78;100086.03;4914463;29;20131;-70
2021/10/03 01:19:33;;;;;;;17.80;12.68;;;;;;;14.28;79.76;100084.22;4914634;29;20542;-69
2021/10/03 01:22:00;;;;;;;14.82;13.32;;;;;;;14.21;79.21;100083.03;4896178;29;20094;-68
2021/10/03 01:24:29;;;;;;;18.60;13.27;;;;;;;14.26;78.82;100080.84;4926471;29;20059;-67
2021/10/03 01:26:56;;;;;;;17.52;12.32;;;;;;;14.26;78.67;100072.06;4926864;29;20100;-69
2021/10/03 01:29:24;;;;;;;21.83;13.75;;;;;;;14.22;78.46;100079.41;4894725;29;20075;-69
2021/10/03 01:31:51;;;;;;;19.52;12.55;;;;;;;14.22;78.11;100068.81;4901307;29;20139;-70
2021/10/03 01:34:18;;;;;;;13.68;11.35;;;;;;;14.22;77.92;100071.47;4897734;29;20213;-69
2021/10/03 01:36:45;;;;;;;15.35;11.40;;;;;;;14.24;77.34;100072.19;4926836;29;20087;-68
2021/10/03 01:39:12;;;;;;;18.40;13.45;;;;;;;14.28;77.29;100064.84;4880157;29;20806;-73
2021/10/03 01:41:40;;;;;;;16.02;13.02;;;;;;;14.26;77.66;100067.59;4913794;29;20221;-69
2021/10/03 01:44:07;;;;;;;20.58;12.85;;;;;;;14.23;77.51;100059.94;4929244;28;20051;-71
2021/10/03 01:46:34;;;;;;;18.55;12.43;;;;;;;14.23;76.97;100061.72;4974073;28;20050;-71
2021/10/03 01:49:02;;;;;;;16.02;11.73;;;;;;;14.25;76.54;100060.63;4974809;28;20513;-69
2021/10/03 01:51:29;;;;;;;17.55;11.90;;;;;;;14.22;76.60;100058.22;4976274;28;20471;-68
2021/10/03 01:54:00;;;;;;;16.15;11.90;;;;;;;14.20;76.60;100060.19;4978847;28;20499;-68
2021/10/03 01:56:28;;;;;;;17.27;11.07;;;;;;;14.19;76.19;100059.34;4974365;28;20516;-68
2021/10/03 01:58:58;;;;;;;19.38;12.20;;;;;;;14.19;76.18;100061.97;4999699;28;20101;-67
2021/10/03 02:01:43;;;;;;;17.80;11.65;;;;;;;14.20;75.83;100065.47;4973140;28;20065;-68
2021/10/03 02:04:21;;;;;;;17.75;12.60;;;;;;;14.10;76.61;100068.03;4975279;28;20061;-70
2021/10/03 02:06:54;;;;;;;15.25;12.25;;;;;;;14.09;76.36;100066.34;4976287;28;20145;-66
2021/10/03 02:09:24;;;;;;;14.77;11.05;;;;;;;14.10;76.20;100060.09;4972835;28;20957;-69
2021/10/03 02:11:54;;;;;;;17.55;11.40;;;;;;;14.09;76.15;100063.69;4979037;28;20055;-67
2021/10/03 02:14:26;;;;;;;18.08;11.55;;;;;;;14.10;76.00;100059.25;4989000;28;20421;-67
2021/10/03 02:16:55;;;;;;;13.57;10.52;;;;;;;14.06;75.68;100057.84;4980361;28;20046;-68
2021/10/03 02:19:24;;;;;;;14.55;11.68;;;;;;;14.08;75.61;100051.44;4968936;28;20054;-68
2021/10/03 02:21:52;;;;;;;18.77;11.30;;;;;;;14.08;75.55;100046.13;4982288;28;20081;-66
2021/10/03 02:24:19;;;;;;;14.40;10.90;;;;;;;14.03;75.51;100044.84;4975413;28;21068;-67
2021/10/03 02:26:46;;;;;;;13.52;11.20;;;;;;;14.03;75.75;100050.13;4979198;28;20472;-68
2021/10/03 02:29:17;;;;;;;17.70;11.20;;;;;;;13.93;75.68;100050.06;4971070;28;20073;-67
2021/10/03 02:31:46;;;;;;;14.07;11.02;;;;;;;13.93;75.96;100053.53;4969853;28;20421;-67
2021/10/03 02:34:13;;;;;;;19.58;10.75;;;;;;;13.96;75.37;100051.59;4971998;28;20070;-67
2021/10/03 02:36:40;;;;;;;15.93;9.63;;;;;;;14.00;75.05;100042.44;4972544;28;20065;-68
2021/10/03 02:39:07;;;;;;;15.73;10.98;;;;;;;13.98;75.31;100044.38;4973525;28;20470;-66
2021/10/03 02:41:34;;;;;;;16.85;10.80;;;;;;;13.97;75.52;100045.38;4969251;28;20089;-67
2021/10/03 02:44:03;;;;;;;14.23;10.65;;;;;;;13.96;74.91;100046.31;4969236;28;20043;-67
2021/10/03 02:46:30;;;;;;;13.63;10.63;;;;;;;13.98;74.87;100042.56;4951055;28;20066;-68
2021/10/03 02:48:58;;;;;;;14.80;10.60;;;;;;;13.97;74.88;100040.91;4972730;28;20054;-70
2021/10/03 02:51:27;;;;;;;15.00;10.50;;;;;;;13.99;74.99;100040.75;4977521;28;20073;-68
2021/10/03 02:53:55;;;;;;;13.02;10.65;;;;;;;14.01;75.08;100036.22;4979549;28;20417;-70
2021/10/03 02:56:24;;;;;;;17.38;10.98;;;;;;;13.99;74.67;100032.81;4968850;28;20063;-69
2021/10/03 02:58:52;;;;;;;17.98;10.90;;;;;;;14.00;74.90;100037.97;4975826;28;20584;-69
2021/10/03 03:01:19;;;;;;;14.20;10.43;;;;;;;13.99;74.62;100035.47;4972307;28;20081;-68
2021/10/03 03:03:47;;;;;;;17.30;11.32;;;;;;;13.95;74.33;100032.22;4971262;28;20113;-67
2021/10/03 03:06:14;;;;;;;14.98;10.40;;;;;;;13.90;75.18;100032.63;4973223;28;20723;-67
2021/10/03 03:08:42;;;;;;;16.55;9.93;;;;;;;13.85;74.80;100033.97;4980076;28;20050;-68
2021/10/03 03:11:09;;;;;;;15.63;10.57;;;;;;;13.83;74.67;100036.75;4973706;28;20690;-68
2021/10/03 03:13:36;;;;;;;16.77;10.57;;;;;;;13.77;75.48;100033.75;4969946;28;20113;-68
2021/10/03 03:16:05;;;;;;;17.00;10.85;;;;;;;13.75;75.74;100031.22;4976984;28;20050;-67
2021/10/03 03:18:32;;;;;;;15.57;10.40;;;;;;;13.76;75.61;100027.63;4976175;28;20774;-67
2021/10/03 03:20:59;;;;;;;20.20;10.25;;;;;;;13.75;75.39;100030.41;4970721;28;20074;-67
2021/10/03 03:23:27;;;;;;;14.60;9.95;;;;;;;13.75;75.32;100027.75;4981402;28;20064;-67
2021/10/03 03:25:54;;;;;;;14.88;10.82;;;;;;;13.77;75.52;100028.44;4970945;28;20070;-67
2021/10/03 03:28:21;;;;;;;18.83;10.73;;;;;;;13.83;74.65;100026.16;4971503;28;20170;-70
2021/10/03 03:30:48;;;;;;;13.82;10.30;;;;;;;13.85;74.60;100021.56;4969508;28;20125;-68
2021/10/03 03:33:15;;;;;;;15.10;10.30;;;;;;;13.84;74.71;100024.34;4981289;28;20054;-67
2021/10/03 03:35:43;;;;;;;20.55;11.35;;;;;;;13.87;74.53;100021.47;4974431;28;20138;-68
2021/10/03 03:38:11;;;;;;;16.85;10.68;;;;;;;13.96;73.99;100023.34;4975887;28;20078;-68
2021/10/03 03:40:38;;;;;;;16.95;10.45;;;;;;;13.98;73.85;100015.28;4980577;28;20537;-66
2021/10/03 03:43:06;;;;;;;17.02;10.25;;;;;;;13.96;73.88;100012.78;4975119;28;20185;-70
2021/10/03 03:45:33;;;;;;;14.45;9.95;;;;;;;13.96;73.53;100012.78;4972974;28;20078;-67
2021/10/03 03:48:01;;;;;;;20.10;11.13;;;;;;;14.01;73.42;100021.16;5000260;28;20046;-65
2021/10/03 03:50:31;;;;;;;13.98;10.68;;;;;;;13.98;73.53;100024.06;4978009;28;20125;-67
2021/10/03 03:52:58;;;;;;;15.48;9.45;;;;;;;14.02;73.53;100024.66;4974264;28;20069;-66
2021/10/03 03:55:25;;;;;;;13.23;9.88;;;;;;;14.01;73.19;100026.47;4975473;28;20531;-69
2021/10/03 03:57:53;;;;;;;15.10;10.02;;;;;;;14.03;73.26;100021.03;4976644;28;20053;-66
2021/10/03 04:00:20;;;;;;;13.82;9.70;;;;;;;13.98;73.59;100026.69;4970252;28;20054;-68
2021/10/03 04:02:47;;;;;;;14.25;9.93;;;;;;;14.01;73.64;100029.09;4975579;28;20058;-68
2021/10/03 04:05:15;;;;;;;17.38;10.00;;;;;;;14.01;73.01;100033.56;4972254;28;20089;-67
2021/10/03 04:07:42;;;;;;;18.20;10.32;;;;;;;14.04;72.84;100028.81;4976970;28;20116;-68
2021/10/03 04:10:09;;;;;;;20.10;10.15;;;;;;;14.03;72.60;100028.97;4970784;28;20137;-67
2021/10/03 04:12:36;;;;;;;14.65;10.77;;;;;;;14.04;72.80;100023.53;4972556;28;20057;-67
2021/10/03 04:15:05;;;;;;;12.75;10.57;;;;;;;14.03;72.74;100016.56;4972386;28;20080;-66
2021/10/03 04:17:32;;;;;;;15.27;9.98;;;;;;;14.01;72.89;100020.31;4972568;28;20098;-68
2021/10/03 04:20:00;;;;;;;16.23;9.95;;;;;;;13.95;73.10;100019.00;4968957;28;20058;-66
2021/10/03 04:22:27;;;;;;;11.00;9.48;;;;;;;13.95;73.42;100019.00;4991851;28;20141;-67
2021/10/03 04:24:54;;;;;;;19.17;10.48;;;;;;;13.90;73.69;100019.38;4979212;28;20154;-67
2021/10/03 04:27:21;;;;;;;12.85;10.15;;;;;;;13.90;73.57;100005.31;4974784;28;20065;-67
2021/10/03 04:29:48;;;;;;;17.15;10.93;;;;;;;13.80;74.07;100015.81;4971188;28;20080;-70
2021/10/03 04:32:16;;;;;;;16.42;10.63;;;;;;;13.82;73.72;100018.34;4973922;28;20146;-67
2021/10/03 04:34:43;;;;;;;14.25;10.90;;;;;;;13.82;73.67;100015.69;4970036;28;20536;-67
2021/10/03 04:37:10;;;;;;;18.30;9.57;;;;;;;13.82;73.98;100016.53;4975776;28;20596;-67
2021/10/03 04:39:37;;;;;;;15.25;10.30;;;;;;;13.78;73.98;100011.59;4967100;28;20164;-66
2021/10/03 04:42:05;;;;;;;13.88;11.07;;;;;;;13.76;73.99;100009.09;4974209;28;20534;-68
2021/10/03 04:44:32;;;;;;;14.38;10.18;;;;;;;13.82;73.96;100013.03;4976195;28;20055;-66
2021/10/03 04:46:59;;;;;;;21.48;10.15;;;;;;;13.78;73.90;100011.59;4979307;28;20133;-68
2021/10/03 04:49:26;;;;;;;12.02;10.68;;;;;;;13.82;74.11;100010.41;4969910;28;20134;-64
2021/10/03 04:51:53;;;;;;;19.90;10.52;;;;;;;13.81;73.86;100006.91;4969474;28;20075;-64
2021/10/03 04:54:21;;;;;;;17.08;10.35;;;;;;;13.83;74.16;100007.66;4972454;28;20046;-65
2021/10/03 04:56:48;;;;;;;15.60;11.60;;;;;;;13.83;74.09;100012.09;4979116;28;20153;-62
2021/10/03 04:59:15;;;;;;;14.45;10.27;;;;;;;13.81;73.74;100008.72;4982532;28;20130;-63
2021/10/03 05:01:42;;;;;;;14.20;11.13;;;;;;;13.79;73.87;100008.84;4984964;28;20062;-64
2021/10/03 05:04:10;;;;;;;14.52;10.65;;;;;;;13.78;73.96;100009.84;4975138;28;20058;-63
2021/10/03 05:06:37;;;;;;;16.58;11.00;;;;;;;13.77;74.38;100010.78;4977695;28;20047;-65
2021/10/03 05:09:04;;;;;;;18.38;11.15;;;;;;;13.86;73.79;100012.66;4976342;28;20077;-63
2021/10/03 05:11:32;;;;;;;13.15;10.07;;;;;;;13.87;74.03;100017.00;4976703;28;20055;-66
2021/10/03 05:14:05;;;;;;;16.83;11.27;;;;;;;13.89;73.66;100019.53;4974750;28;20053;-65
2021/10/03 05:16:36;;;;;;;11.80;10.07;;;;;;;13.86;73.87;100015.31;4976489;28;20054;-65
2021/10/03 05:19:05;;;;;;;20.17;11.75;;;;;;;13.92;73.58;100017.47;4975609;28;20057;-66
2021/10/03 05:21:32;;;;;;;13.75;10.38;;;;;;;13.94;73.44;100017.34;4977734;28;20113;-64
2021/10/03 05:23:59;;;;;;;16.30;10.38;;;;;;;13.91;73.86;100014.94;4972293;28;20540;-66
2021/10/03 05:26:26;;;;;;;13.30;10.93;;;;;;;13.99;73.59;100014.31;4951962;28;20053;-65
2021/10/03 05:28:54;;;;;;;17.45;11.05;;;;;;;14.01;73.25;100009.75;4972929;28;20134;-66
2021/10/03 05:31:21;;;;;;;13.90;11.00;;;;;;;13.99;73.69;100014.31;4974205;28;20065;-65
2021/10/03 05:33:48;;;;;;;18.08;10.82;;;;;;;14.06;73.46;100018.13;4975334;28;20113;-66
2021/10/03 05:36:16;;;;;;;13.32;11.02;;;;;;;14.05;72.91;100012.00;4975329;28;20533;-66
2021/10/03 05:38:43;;;;;;;17.23;11.50;;;;;;;14.03;73.28;100007.78;4979827;28;20051;-65
2021/10/03 05:41:11;;;;;;;16.00;12.10;;;;;;;14.11;72.99;100015.94;4970183;28;20054;-66
2021/10/03 05:43:38;;;;;;;15.18;11.52;;;;;;;14.09;73.02;100026.63;4975692;28;20092;-67
2021/10/03 05:46:08;;;;;;;17.90;11.60;;;;;;;14.12;73.23;100026.38;4971901;28;20142;-66
2021/10/03 05:48:35;;;;;;;17.63;10.70;;;;;;;14.22;72.57;100025.63;4975931;28;20046;-66
2021/10/03 05:51:02;;;;;;;18.83;11.55;;;;;;;14.21;72.40;100029.25;4970657;28;20058;-66
2021/10/03 05:53:29;;;;;;;19.77;10.52;;;;;;;14.23;72.43;100024.66;4973591;28;20524;-66
2021/10/03 05:55:56;;;;;;;15.95;11.10;;;;;;;14.23;72.40;100030.81;4973105;28;20506;-67
2021/10/03 05:58:24;;;;;;;17.85;11.05;;;;;;;14.23;72.42;100024.66;4973152;28;20059;-64
2021/10/03 06:00:51;;;;;;;16.63;12.35;;;;;;;14.27;72.07;100024.25;4975332;28;20051;-65
2021/10/03 06:03:18;;;;;;;17.05;11.50;;;;;;;14.27;72.44;100016.31;4972384;28;20054;-67
2021/10/03 06:05:46;;;;;;;18.20;11.55;;;;;;;14.29;72.27;100024.16;4975766;28;20135;-66
2021/10/03 06:08:15;;;;;;;13.82;10.52;;;;;;;14.29;71.79;100013.56;4977124;28;20143;-66
2021/10/03 06:10:43;;;;;;;14.43;10.77;;;;;;;14.32;72.29;100018.56;4969483;28;20109;-65
2021/10/03 06:13:11;;;;;;;14.38;10.52;;;;;;;14.35;72.18;100021.81;4973596;28;20082;-65
2021/10/03 06:15:42;;;;;;;12.57;11.23;;;;;;;14.35;71.99;100020.97;4972528;28;20133;-66
2021/10/03 06:18:11;;;;;;;15.63;12.35;;;;;;;14.33;72.42;100023.75;4971594;28;20055;-65
2021/10/03 06:20:38;;;;;;;17.02;11.57;;;;;;;14.30;72.68;100026.66;4969817;28;20138;-64
2021/10/03 06:23:06;;;;;;;17.05;11.75;;;;;;;14.35;72.42;100019.16;4972150;28;20609;-67
2021/10/03 06:25:34;;;;;;;17.05;12.05;;;;;;;14.37;72.07;100027.00;4970974;28;20070;-65
2021/10/03 06:28:01;;;;;;;17.10;11.10;;;;;;;14.40;72.61;100024.91;4971886;28;20135;-65
2021/10/03 06:30:28;;;;;;;16.80;11.18;;;;;;;14.48;72.28;100032.25;4969781;28;20523;-65
2021/10/03 06:32:57;;;;;;;17.50;11.07;;;;;;;14.53;71.88;100027.41;4973910;28;20130;-65
2021/10/03 06:35:25;;;;;;;13.55;10.73;;;;;;;14.54;71.40;100037.00;4971299;28;20517;-66
2021/10/03 06:37:52;;;;;;;18.20;12.40;;;;;;;14.65;71.31;100029.00;4969280;28;20059;-65
2021/10/03 06:40:19;;;;;;;15.60;11.07;;;;;;;14.77;70.99;100028.91;4968891;28;20109;-66
2021/10/03 06:42:46;;;;;;;14.20;10.63;;;;;;;14.96;70.37;100015.78;4973390;28;20064;-68
2021/10/03 06:45:13;;;;;;;21.73;11.77;;;;;;;15.00;69.97;100017.19;4967976;28;20053;-66
2021/10/03 06:47:40;;;;;;;15.02;11.10;;;;;;;15.11;69.88;100017.06;4971305;28;20050;-65
2021/10/03 06:50:08;;;;;;;17.60;11.23;;;;;;;15.15;70.08;100018.50;4967885;28;20069;-66
2021/10/03 06:52:35;;;;;;;18.40;11.40;;;;;;;15.26;68.98;100025.50;4972510;28;20466;-66
2021/10/03 06:55:04;;;;;;;14.30;11.10;;;;;;;15.37;68.77;100029.88;4983725;28;20081;-66
2021/10/03 06:57:31;;;;;;;14.02;10.88;;;;;;;15.29;68.72;100024.41;4972923;28;20054;-67
2021/10/03 07:00:00;;;;;;;16.67;12.40;;;;;;;15.29;68.76;100027.88;4968672;28;20482;-63
2021/10/03 07:02:28;;;;;;;15.43;10.60;;;;;;;15.37;68.94;100024.56;4971362;28;20480;-66
2021/10/03 07:04:56;;;;;;;17.00;12.43;;;;;;;15.38;68.86;100028.88;4964493;28;20130;-65
2021/10/03 07:07:23;;;;;;;14.23;11.45;;;;;;;15.34;69.61;100030.13;4977690;28;20046;-68
2021/10/03 07:09:51;;;;;;;15.57;11.43;;;;;;;15.36;69.22;100029.03;4968514;28;20105;-65
2021/10/03 07:12:18;;;;;;;15.15;11.98;;;;;;;15.42;68.92;100027.63;4988248;28;20337;-66
2021/10/03 07:14:45;;;;;;;16.63;11.95;;;;;;;15.34;69.71;100028.31;4964054;28;20101;-64
2021/10/03 07:17:13;;;;;;;23.40;11.48;;;;;;;15.36;69.90;100014.94;4972314;28;20074;-67
2021/10/03 07:19:40;;;;;;;14.50;10.75;;;;;;;15.17;69.96;100013.91;4959739;28;20053;-67
2021/10/03 07:22:08;;;;;;;20.08;11.43;;;;;;;15.13;70.42;100011.63;4970060;28;20161;-65
2021/10/03 07:24:36;;;;;;;17.25;11.98;;;;;;;15.13;70.52;100016.94;4971090;28;20058;-66
2021/10/03 07:27:04;;;;;;;12.23;10.63;;;;;;;15.12;71.09;100021.41;4978866;28;20572;-70
2021/10/03 07:29:32;;;;;;;16.25;11.13;;;;;;;15.10;71.94;100011.91;4940512;28;20145;-65
2021/10/03 07:31:59;;;;;;;15.55;12.10;;;;;;;15.18;71.64;100015.56;4976037;28;20062;-66
2021/10/03 07:34:28;;;;;;;20.92;12.05;;;;;;;15.32;71.44;100018.84;4982920;28;20137;-67
2021/10/03 07:36:56;;;;;;;13.60;11.18;;;;;;;15.49;70.48;100015.53;4975734;28;20107;-65
2021/10/03 07:39:23;;;;;;;15.68;10.77;;;;;;;15.47;70.27;100025.41;4971484;28;20051;-66
2021/10/03 07:41:51;;;;;;;14.90;11.05;;;;;;;15.44;70.38;100029.19;4977334;28;20085;-64
2021/10/03 07:44:18;;;;;;;13.25;11.05;;;;;;;15.49;69.95;100019.97;4974312;28;20288;-65
2021/10/03 07:46:45;;;;;;;12.68;10.55;;;;;;;15.49;69.73;100010.22;4973437;28;20109;-64
2021/10/03 07:49:14;;;;;;;15.00;11.38;;;;;;;15.56;69.80;100013.97;4973315;28;20050;-65
2021/10/03 07:51:42;;;;;;;19.70;11.85;;;;;;;15.65;69.12;100013.19;4976198;28;20074;-67
2021/10/03 07:54:09;;;;;;;18.15;11.45;;;;;;;15.68;68.92;100020.88;4972237;28;20063;-66
2021/10/03 07:56:40;;;;;;;15.82;9.93;;;;;;;15.78;68.80;100020.06;4977582;28;20069;-65
2021/10/03 07:59:08;;;;;;;19.13;11.00;;;;;;;15.88;68.67;100021.72;4975400;28;20488;-66
2021/10/03 08:01:35;;;;;;;16.50;10.38;;;;;;;15.89;68.44;100023.41;4979694;28;20509;-64
2021/10/03 08:04:03;;;;;;;15.00;10.38;;;;;;;15.89;68.43;100022.56;4974649;28;20370;-67
2021/10/03 08:06:31;;;;;;;13.43;11.32;;;;;;;15.98;68.04;100026.19;4983141;28;20118;-65
2021/10/03 08:08:59;;;;;;;16.95;10.63;;;;;;;16.05;68.26;100017.53;4977480;28;20230;-66
2021/10/03 08:11:27;;;;;;;14.77;11.13;;;;;;;15.97;67.87;100030.66;4971743;28;20493;-67
2021/10/03 08:13:54;;;;;;;15.85;10.10;;;;;;;16.01;68.13;100021.44;4990829;28;20165;-66
2021/10/03 08:16:21;;;;;;;13.15;10.35;;;;;;;16.01;67.94;100025.94;4984129;28;20061;-65
2021/10/03 08:18:49;;;;;;;15.63;11.40;;;;;;;16.02;67.98;100016.97;4976217;28;20460;-65
2021/10/03 08:21:17;;;;;;;14.23;10.73;;;;;;;16.02;67.91;100025.78;4968567;28;20059;-65
2021/10/03 08:23:44;;;;;;;18.80;11.13;;;;;;;16.14;67.85;100026.50;4974406;28;20421;-64
2021/10/03 08:26:12;;;;;;;18.05;10.90;;;;;;;16.28;67.26;100017.25;4979983;28;20055;-64
2021/10/03 08:28:41;;;;;;;14.57;10.15;;;;;;;16.43;66.55;100015.81;4979675;28;20066;-65
2021/10/03 08:31:09;;;;;;;17.00;10.75;;;;;;;16.52;66.31;100014.94;4969666;28;20061;-64
2021/10/03 08:33:37;;;;;;;13.95;10.02;;;;;;;16.52;66.61;100022.91;4974682;28;20062;-65
2021/10/03 08:36:05;;;;;;;12.98;10.40;;;;;;;16.50;66.36;100018.75;4974852;28;20097;-65
2021/10/03 08:38:32;;;;;;;17.70;10.32;;;;;;;16.56;66.90;100020.81;4975634;28;20047;-67
2021/10/03 08:41:00;;;;;;;13.80;10.68;;;;;;;16.69;66.18;100016.88;4970079;28;20470;-65
2021/10/03 08:43:29;;;;;;;13.40;9.27;;;;;;;16.89;65.39;100015.03;4972512;28;20142;-65
2021/10/03 08:46:06;;;;;;;12.18;9.50;;;;;;;16.88;64.92;100005.34;4971693;28;20058;-65
2021/10/03 08:48:34;;;;;;;13.13;9.73;;;;;;;16.98;64.60;99997.38;4977922;28;20085;-63
2021/10/03 08:51:01;;;;;;;14.15;10.10;;;;;;;17.08;64.15;100000.81;4969783;28;20104;-65
2021/10/03 08:53:29;;;;;;;17.67;11.57;;;;;;;17.09;64.01;100004.31;4973582;28;20078;-65
2021/10/03 08:55:56;;;;;;;13.13;9.50;;;;;;;17.15;63.92;100001.88;4973029;28;20062;-64
2021/10/03 08:58:24;;;;;;;16.90;11.00;;;;;;;17.20;64.10;99988.13;4973724;28;20635;-65
2021/10/03 09:00:55;;;;;;;11.95;9.55;;;;;;;17.46;63.15;99997.09;4973782;28;20508;-65
2021/10/03 09:03:23;;;;;;;17.10;10.13;;;;;;;17.71;62.50;99998.19;4966383;28;20100;-64
2021/10/03 09:05:52;;;;;;;15.15;9.15;;;;;;;17.80;61.67;99987.66;4971841;28;20146;-65
2021/10/03 09:08:23;;;;;;;11.75;9.25;;;;;;;17.80;61.73;99996.47;4966733;28;20058;-66
2021/10/03 09:10:59;;;;;;;13.85;9.63;;;;;;;17.75;62.12;99989.94;4972180;28;20059;-63
2021/10/03 09:13:31;;;;;;;14.65;8.23;;;;;;;17.73;61.81;99995.34;4969628;28;20134;-65
2021/10/03 09:16:24;;;;;;;15.98;10.35;;;;;;;17.80;61.59;99984.97;4972936;28;20054;-64
2021/10/03 09:18:54;;;;;;;13.25;9.50;;;;;;;17.91;61.76;99998.06;4969679;28;20062;-64
2021/10/03 09:21:30;;;;;;;14.32;10.30;;;;;;;18.10;60.82;99984.59;4974235;28;20133;-65
2021/10/03 09:24:04;;;;;;;15.23;10.02;;;;;;;18.24;61.26;99991.19;4970526;28;20133;-65
2021/10/03 09:26:32;;;;;;;14.52;8.93;;;;;;;18.22;61.20;99987.81;4976591;28;20058;-64
2021/10/03 09:29:18;;;;;;;13.77;9.20;;;;;;;18.43;60.42;99983.00;4974589;28;20074;-67
2021/10/03 09:32:05;;;;;;;12.43;8.65;;;;;;;18.30;60.60;99995.88;4983319;28;20517;-65
2021/10/03 09:34:32;;;;;;;14.98;9.73;;;;;;;18.40;60.59;99996.63;4981560;28;20161;-66
2021/10/03 09:37:23;;;;;;;14.88;9.65;;;;;;;18.48;60.67;99996.66;4976298;28;20516;-65
2021/10/03 09:40:04;;;;;;;12.40;9.35;;;;;;;18.33;61.19;99992.91;4969796;28;20378;-65
2021/10/03 09:42:31;;;;;;;11.20;9.05;;;;;;;18.34;61.45;99993.75;4965125;28;20262;-65
2021/10/03 09:45:15;;;;;;;12.55;9.48;;;;;;;18.34;61.26;99985.75;4965993;28;20074;-65
2021/10/03 09:47:44;;;;;;;14.68;9.02;;;;;;;18.35;61.35;99990.09;4960792;28;20073;-64
2021/10/03 09:50:15;;;;;;;11.40;10.20;;;;;;;18.40;61.62;99987.78;4959388;28;20059;-66
2021/10/03 09:52:43;;;;;;;11.18;9.38;;;;;;;18.73;60.79;99994.19;4964370;28;20066;-66
2021/10/03 09:55:14;;;;;;;13.35;10.02;;;;;;;18.89;59.96;99990.78;4964211;28;20130;-65
2021/10/03 09:57:42;;;;;;;12.95;10.52;;;;;;;19.07;59.85;99988.84;4963033;28;20114;-65
2021/10/03 10:00:12;;;;;;;13.45;9.30;;;;;;;19.26;58.85;99990.41;4960798;28;20153;-67
2021/10/03 10:02:40;;;;;;;11.98;8.68;;;;;;;19.44;58.56;99992.97;4962471;28;20065;-66
2021/10/03 10:05:07;;;;;;;12.70;9.30;;;;;;;19.53;58.02;99985.81;4959483;28;20063;-67
2021/10/03 10:07:35;;;;;;;10.63;8.93;;;;;;;19.66;57.49;99983.53;4961260;28;20069;-69
2021/10/03 10:10:07;;;;;;;13.85;9.35;;;;;;;19.72;57.45;99990.88;4958765;28;20561;-65
2021/10/03 10:12:37;;;;;;;13.07;9.45;;;;;;;20.06;56.67;99995.25;4961725;28;20138;-66
2021/10/03 10:15:10;;;;;;;10.95;7.88;;;;;;;20.46;55.52;99989.06;4965735;28;20093;-68
2021/10/03 10:17:41;;;;;;;12.20;8.48;;;;;;;20.47;55.33;99996.06;4965471;28;20186;-66
2021/10/03 10:20:17;;;;;;;13.02;8.25;;;;;;;20.62;54.66;99999.72;4952792;28;20050;-66
2021/10/03 10:23:04;;;;;;;10.30;7.93;;;;;;;20.67;54.55;99991.22;4954252;28;20055;-67
2021/10/03 10:25:54;;;;;;;10.23;8.18;;;;;;;20.90;53.95;99997.50;4961631;28;20623;-66
2021/10/03 10:28:34;;;;;;;14.43;8.82;;;;;;;20.86;54.49;99993.50;4969969;28;20086;-66
2021/10/03 10:31:23;;;;;;;16.85;8.00;;;;;;;20.88;53.90;99985.28;4966445;28;20138;-66
2021/10/03 10:33:50;;;;;;;11.88;8.75;;;;;;;21.06;53.82;99993.91;4977762;28;20062;-66
2021/10/03 10:36:22;;;;;;;15.65;7.88;;;;;;;20.85;54.37;99988.31;4959709;28;20086;-66
2021/10/03 10:39:07;;;;;;;10.60;7.82;;;;;;;21.13;54.00;99986.03;4956194;28;20395;-68
2021/10/03 10:41:40;;;;;;;10.25;7.53;;;;;;;21.10;53.42;99987.22;4972649;28;20139;-68
2021/10/03 10:44:28;;;;;;;15.48;8.20;;;;;;;21.06;53.82;99980.53;4972816;28;20121;-66
2021/10/03 10:47:07;;;;;;;9.52;7.78;;;;;;;20.98;53.83;99985.91;4976213;28;20086;-67
2021/10/03 10:49:38;;;;;;;12.27;8.20;;;;;;;20.97;54.42;99984.25;4971811;28;20520;-67
2021/10/03 10:52:21;;;;;;;10.88;8.23;;;;;;;21.13;53.97;99976.16;5011760;23;20073;-78
2021/10/03 10:55:04;;;;;;;11.70;7.18;;;;;;;21.18;53.96;99978.31;5004346;28;20591;-78
2021/10/03 10:57:33;;;;;;;14.27;8.30;;;;;;;21.18;53.84;99981.00;5007534;28;20057;-77
2021/10/03 11:00:22;;;;;;;11.15;7.38;;;;;;;21.31;53.71;99975.09;4985559;28;20578;-78
2021/10/03 11:02:54;;;;;;;10.80;8.02;;;;;;;21.50;53.20;99969.31;4993892;28;20062;-78
2021/10/03 11:05:43;;;;;;;8.70;7.78;;;;;;;21.42;53.41;99972.03;4985021;28;20133;-80
2021/10/03 11:08:14;;;;;;;10.55;7.63;;;;;;;21.50;53.42;99971.97;4997869;28;20046;-78
2021/10/03 11:11:00;;;;;;;11.35;8.45;;;;;;;21.40;53.14;99972.22;5011593;28;20370;-78
2021/10/03 11:13:45;;;;;;;12.82;7.47;;;;;;;21.68;52.80;99969.84;5005028;28;20297;-77
2021/10/03 11:16:30;;;;;;;8.75;7.60;;;;;;;21.96;52.02;99971.97;5002688;28;20054;-78
2021/10/03 11:18:59;;;;;;;13.10;7.80;;;;;;;22.00;52.00;99974.13;5012012;28;20516;-79
2021/10/03 11:21:41;;;;;;;7.40;6.45;;;;;;;21.96;52.05;99980.03;5013281;28;20046;-78